Time;durP1;ratioP1;P1;durP2;ratioP2;P2;SDS_P1;SDS_P2;PMS_P1;PMS_P2;Temp;Humidity;BMP_temperature;BMP_pressure;BME280_temperature;BME280_humidity;BME280_pressure;Samples;Min_cycle;Max_cycle;Signal;HPM_P1;HPM_P2
2021/09/03 00:01:41;;;;;;;11.88;8.07;;;;;;;;;;5012384;28;20570;-86
2021/09/03 00:04:08;;;;;;;9.52;7.38;;;;;;;;;;4997292;28;20054;-86
2021/09/03 00:06:45;;;;;;;11.88;7.40;;;;;;;;;;5000050;28;20056;-85
2021/09/03 00:11:39;;;;;;;11.32;7.30;;;;;;;;;;5016042;28;20046;-86
2021/09/03 00:14:09;;;;;;;10.38;6.97;;;;;;;;;;5014625;28;20049;-86
2021/09/03 00:16:53;;;;;;;10.85;7.10;;;;;;;;;;5016920;28;20503;-86
2021/09/03 00:19:25;;;;;;;9.65;6.82;;;;;;;;;;5016499;28;20061;-86
2021/09/03 00:24:50;;;;;;;10.23;7.18;;;;;;;;;;5009397;28;20064;-86
2021/09/03 00:32:57;;;;;;;11.85;7.70;;;;;;;;;;5015692;28;20058;-87
2021/09/03 00:35:24;;;;;;;10.48;7.70;;;;;;;;;;5017431;28;20052;-86
2021/09/03 00:40:43;;;;;;;9.30;6.80;;;;;;;;;;5008664;28;20057;-86
2021/09/03 00:43:10;;;;;;;9.18;6.78;;;;;;;;;;5017766;28;20046;-88
2021/09/03 00:48:32;;;;;;;9.30;7.10;;;;;;;;;;5059295;22;20088;-86
2021/09/03 00:51:13;;;;;;;;;;;;;;;;;;;;;
2021/09/03 00:53:56;;;;;;;10.98;7.40;;;;;;;;;;5016719;28;20049;-86
2021/09/03 00:56:23;;;;;;;10.18;7.40;;;;;;;;;;5016093;28;20042;-87
2021/09/03 00:58:50;;;;;;;10.00;6.53;;;;;;;;;;5026113;28;20054;-87
2021/09/03 01:01:31;;;;;;;10.13;7.30;;;;;;;;;;5034650;28;20046;-87
2021/09/03 01:06:59;;;;;;;10.05;7.07;;;;;;;;;;5029490;28;20109;-86
2021/09/03 01:09:26;;;;;;;9.77;6.72;;;;;;;;;;5018735;28;20423;-86
2021/09/03 01:12:00;;;;;;;11.18;7.90;;;;;;;;;;5016062;28;20048;-86
2021/09/03 01:17:17;;;;;;;11.77;8.00;;;;;;;;;;5006854;28;20046;-86
2021/09/03 01:23:23;;;;;;;10.13;7.38;;;;;;;;;;5022075;28;20081;-87
2021/09/03 01:26:13;;;;;;;12.32;8.27;;;;;;;;;;5035054;28;20037;-86
2021/09/03 01:29:14;;;;;;;;;;;;;;;;;;;;;
2021/09/03 01:37:14;;;;;;;9.85;7.63;;;;;;;;;;4993331;28;20055;-87
2021/09/03 01:45:39;;;;;;;13.05;8.00;;;;;;;;;;5030657;28;20049;-86
2021/09/03 01:48:18;;;;;;;10.50;6.82;;;;;;;;;;5036209;22;20061;-86
2021/09/03 01:50:45;;;;;;;11.05;7.50;;;;;;;;;;5015281;28;20065;-86
2021/09/03 01:53:12;;;;;;;10.25;7.07;;;;;;;;;;5017833;28;20448;-87
2021/09/03 01:55:50;;;;;;;10.35;7.18;;;;;;;;;;5020058;28;20053;-87
2021/09/03 01:58:45;;;;;;;10.75;8.20;;;;;;;;;;5019375;28;20050;-87
2021/09/03 02:01:29;;;;;;;10.90;7.13;;;;;;;;;;4973037;28;20069;-86
2021/09/03 02:06:51;;;;;;;10.07;7.28;;;;;;;;;;5013313;28;20061;-86
2021/09/03 02:09:24;;;;;;;10.30;7.30;;;;;;;;;;5015298;28;20042;-87
2021/09/03 02:12:40;;;;;;;12.55;7.43;;;;;;;;;;5014791;28;20058;-87
2021/09/03 02:18:23;;;;;;;10.85;8.23;;;;;;;;;;4993979;28;20058;-86
2021/09/03 02:21:02;;;;;;;11.52;8.30;;;;;;;;;;4995168;28;20050;-86
2021/09/03 02:26:40;;;;;;;12.15;8.77;;;;;;;;;;5003059;28;20045;-87
2021/09/03 02:32:19;;;;;;;9.43;6.75;;;;;;;;;;4934328;29;20040;-87
2021/09/03 02:37:45;;;;;;;11.05;7.28;;;;;;;;;;4881202;29;20042;-86
2021/09/03 02:43:05;;;;;;;11.60;7.93;;;;;;;;;;4829025;29;20064;-85
2021/09/03 02:48:40;;;;;;;10.25;7.20;;;;;;;;;;4860316;29;20080;-85
2021/09/03 02:51:17;;;;;;;10.73;7.63;;;;;;;;;;4876974;29;20117;-85
2021/09/03 02:54:03;;;;;;;;;;;;;;;;;;;;;
2021/09/03 02:56:33;;;;;;;13.50;8.98;;;;;;;;;;4951517;29;20572;-85
2021/09/03 03:01:52;;;;;;;12.82;9.02;;;;;;;;;;4983622;28;20061;-85
2021/09/03 03:04:19;;;;;;;11.82;8.02;;;;;;;;;;4996973;28;20554;-85
2021/09/03 03:06:56;;;;;;;11.85;8.63;;;;;;;;;;4994611;28;20054;-86
2021/09/03 03:09:22;;;;;;;11.57;7.85;;;;;;;;;;5015046;23;20495;-85
2021/09/03 03:12:10;;;;;;;12.23;8.07;;;;;;;;;;5012592;28;20042;-85
2021/09/03 03:18:29;;;;;;;12.13;7.97;;;;;;;;;;5021548;28;20415;-85
2021/09/03 03:25:31;;;;;;;12.02;7.70;;;;;;;;;;4965617;28;20480;-86
2021/09/03 03:28:39;;;;;;;11.73;7.72;;;;;;;;;;4968006;28;20054;-86
2021/09/03 03:34:07;;;;;;;11.23;8.02;;;;;;;;;;4926791;28;20059;-85
2021/09/03 03:36:40;;;;;;;12.85;8.27;;;;;;;;;;4971590;28;20055;-85
2021/09/03 03:39:17;;;;;;;11.93;8.60;;;;;;;;;;5022033;22;20053;-85
2021/09/03 03:41:44;;;;;;;12.00;7.85;;;;;;;;;;5032855;28;20063;-85
2021/09/03 03:44:16;;;;;;;11.68;8.35;;;;;;;;;;5032978;28;20049;-85
2021/09/03 03:47:14;;;;;;;11.88;7.72;;;;;;;;;;5034826;28;20045;-85
2021/09/03 03:49:44;;;;;;;10.77;8.02;;;;;;;;;;5022653;22;20408;-85
2021/09/03 03:52:18;;;;;;;12.37;8.73;;;;;;;;;;5023487;28;20042;-85
2021/09/03 03:54:45;;;;;;;11.90;8.20;;;;;;;;;;5023645;28;20370;-85
2021/09/03 03:59:59;;;;;;;12.15;8.90;;;;;;;;;;4941580;28;20058;-85
2021/09/03 04:02:35;;;;;;;12.75;7.88;;;;;;;;;;4994403;28;20069;-85
2021/09/03 04:05:11;;;;;;;11.00;7.57;;;;;;;;;;4993947;28;20497;-85
2021/09/03 04:07:48;;;;;;;11.88;7.90;;;;;;;;;;4964748;28;20046;-85
2021/09/03 04:10:25;;;;;;;;;;;;;;;;;;;;;
2021/09/03 04:15:51;;;;;;;18.10;11.90;;;;;;;;;;4951987;29;20375;-85
2021/09/03 04:21:17;;;;;;;15.02;10.35;;;;;;;;;;4936027;29;20432;-85
2021/09/03 04:23:44;;;;;;;13.07;9.55;;;;;;;;;;4951983;29;20436;-85
2021/09/03 04:26:18;;;;;;;13.48;8.95;;;;;;;;;;4951622;29;20047;-85
2021/09/03 04:31:36;;;;;;;14.18;9.43;;;;;;;;;;4970290;28;20515;-86
2021/09/03 04:34:17;;;;;;;12.10;7.97;;;;;;;;;;4970495;28;20051;-85
2021/09/03 04:36:51;;;;;;;12.75;8.68;;;;;;;;;;4973188;28;20539;-85
2021/09/03 04:39:18;;;;;;;15.52;11.38;;;;;;;;;;4972507;28;20097;-85
2021/09/03 04:44:37;;;;;;;12.55;9.32;;;;;;;;;;4971010;28;20047;-85
2021/09/03 04:47:28;;;;;;;;;;;;;;;;;;;;;
2021/09/03 04:59:09;;;;;;;;;;;;;;;;;;;;;
2021/09/03 05:01:44;;;;;;;13.35;9.35;;;;;;;;;;5012552;28;20064;-85
2021/09/03 05:12:52;;;;;;;;;;;;;;;;;;;;;
2021/09/03 05:15:42;;;;;;;13.45;9.23;;;;;;;;;;5015371;28;20034;-85
2021/09/03 05:18:15;;;;;;;11.48;8.23;;;;;;;;;;5027448;23;20042;-85
2021/09/03 05:20:42;;;;;;;12.57;8.73;;;;;;;;;;5023724;28;20499;-85
2021/09/03 05:23:58;;;;;;;12.65;8.68;;;;;;;;;;5015546;28;20041;-85
2021/09/03 05:26:39;;;;;;;15.82;10.05;;;;;;;;;;4992701;28;20049;-85
2021/09/03 05:29:14;;;;;;;12.82;9.65;;;;;;;;;;5015974;28;20077;-85
2021/09/03 05:31:40;;;;;;;16.20;9.95;;;;;;;;;;5015262;28;20049;-86
2021/09/03 05:34:07;;;;;;;13.65;9.82;;;;;;;;;;5015394;28;20081;-85
2021/09/03 05:36:40;;;;;;;15.80;9.75;;;;;;;;;;5015668;28;20046;-85
2021/09/03 05:39:25;;;;;;;;;;;;;;;;;;;;;
2021/09/03 05:44:56;;;;;;;14.05;9.73;;;;;;;;;;4973811;28;20046;-85
2021/09/03 05:50:06;;;;;;;15.95;10.77;;;;;;;;;;5119916;23;20053;-85
2021/09/03 05:52:43;;;;;;;;;;;;;;;;;;;;;
2021/09/03 05:55:17;;;;;;;12.90;9.82;;;;;;;;;;5035880;28;20045;-85
2021/09/03 05:58:07;;;;;;;14.40;9.30;;;;;;;;;;5049227;22;20028;-85
2021/09/03 06:06:14;;;;;;;14.60;9.00;;;;;;;;;;4973609;28;20057;-85
2021/09/03 06:09:12;;;;;;;14.45;10.15;;;;;;;;;;5023661;23;20561;-85
2021/09/03 06:11:39;;;;;;;15.35;10.02;;;;;;;;;;5015294;28;20049;-85
2021/09/03 06:14:25;;;;;;;17.08;10.63;;;;;;;;;;5022174;28;20047;-85
2021/09/03 06:16:59;;;;;;;13.32;9.25;;;;;;;;;;5036076;28;20073;-85
2021/09/03 06:19:27;;;;;;;15.95;10.60;;;;;;;;;;5014750;28;20064;-85
2021/09/03 06:22:04;;;;;;;;;;;;;;;;;;;;;
2021/09/03 06:24:47;;;;;;;14.55;10.43;;;;;;;;;;5014557;28;20053;-85
2021/09/03 06:27:25;;;;;;;16.30;10.68;;;;;;;;;;5014432;28;20539;-85
2021/09/03 06:32:50;;;;;;;17.02;10.77;;;;;;;;;;5014179;28;20522;-86
2021/09/03 06:35:30;;;;;;;16.52;11.75;;;;;;;;;;5014580;28;20495;-87
2021/09/03 06:41:01;;;;;;;14.25;9.93;;;;;;;;;;5014071;28;19972;-87
2021/09/03 06:43:46;;;;;;;14.60;10.65;;;;;;;;;;5028687;28;20077;-88
2021/09/03 06:46:28;;;;;;;13.70;9.77;;;;;;;;;;5035882;28;20075;-87
2021/09/03 06:49:01;;;;;;;14.05;9.82;;;;;;;;;;5035128;28;20062;-87
2021/09/03 06:51:40;;;;;;;;;;;;;;;;;;;;;
2021/09/03 06:54:13;;;;;;;17.27;11.05;;;;;;;;;;5011702;28;20054;-86
2021/09/03 06:56:46;;;;;;;14.40;10.52;;;;;;;;;;5018470;28;20419;-86
2021/09/03 06:59:13;;;;;;;17.95;11.48;;;;;;;;;;4991521;28;20054;-86
2021/09/03 07:04:56;;;;;;;16.52;11.77;;;;;;;;;;4883751;29;20072;-86
2021/09/03 07:12:38;;;;;;;18.55;11.43;;;;;;;;;;5013397;28;20061;-86
2021/09/03 07:15:21;;;;;;;14.15;8.95;;;;;;;;;;5022372;28;20108;-86
2021/09/03 07:17:57;;;;;;;18.00;9.40;;;;;;;;;;5015186;28;20128;-87
2021/09/03 07:20:24;;;;;;;16.10;9.63;;;;;;;;;;5013317;28;20050;-87
2021/09/03 07:25:38;;;;;;;14.27;9.50;;;;;;;;;;5013930;28;20048;-87
2021/09/03 07:28:13;;;;;;;18.45;9.23;;;;;;;;;;5013252;28;20049;-87
2021/09/03 07:30:40;;;;;;;14.57;10.52;;;;;;;;;;5012884;28;20053;-86
2021/09/03 07:33:24;;;;;;;13.40;9.02;;;;;;;;;;5014160;28;20049;-86
2021/09/03 07:35:59;;;;;;;12.20;8.20;;;;;;;;;;5014364;28;20069;-87
2021/09/03 07:38:30;;;;;;;13.73;9.50;;;;;;;;;;5013995;28;20053;-87
2021/09/03 07:41:05;;;;;;;13.80;9.25;;;;;;;;;;5012305;28;20050;-87
2021/09/03 07:43:32;;;;;;;12.75;8.52;;;;;;;;;;5014782;28;20385;-84
2021/09/03 07:46:07;;;;;;;12.20;7.90;;;;;;;;;;5015846;28;20054;-87
2021/09/03 07:48:35;;;;;;;13.35;8.45;;;;;;;;;;5039710;22;20046;-84
2021/09/03 07:51:02;;;;;;;13.00;8.70;;;;;;;;;;5022634;28;20054;-84
2021/09/03 07:53:29;;;;;;;14.30;9.98;;;;;;;;;;5022512;28;20042;-83
2021/09/03 07:55:56;;;;;;;13.82;8.88;;;;;;;;;;5021611;28;20522;-83
2021/09/03 07:58:23;;;;;;;17.85;10.82;;;;;;;;;;5023215;28;20077;-83
2021/09/03 08:00:49;;;;;;;13.35;9.38;;;;;;;;;;5020922;28;20050;-83
2021/09/03 08:03:16;;;;;;;13.82;8.77;;;;;;;;;;5021364;28;20065;-83
2021/09/03 08:05:44;;;;;;;11.70;7.90;;;;;;;;;;5022713;28;20046;-84
2021/09/03 08:08:11;;;;;;;17.02;10.00;;;;;;;;;;5022257;28;20084;-84
2021/09/03 08:10:38;;;;;;;14.73;9.68;;;;;;;;;;5023649;28;20082;-84
2021/09/03 08:13:06;;;;;;;14.30;9.27;;;;;;;;;;5023683;28;20054;-83
2021/09/03 08:15:34;;;;;;;17.15;9.60;;;;;;;;;;5022940;28;20521;-83
2021/09/03 08:18:01;;;;;;;12.30;8.73;;;;;;;;;;5023669;28;20056;-84
2021/09/03 08:20:28;;;;;;;13.07;9.18;;;;;;;;;;5019949;28;20078;-84
2021/09/03 08:22:56;;;;;;;15.13;11.27;;;;;;;;;;5022045;28;20499;-84
2021/09/03 08:25:23;;;;;;;15.07;10.43;;;;;;;;;;5022221;28;20103;-83
2021/09/03 08:27:51;;;;;;;18.38;11.25;;;;;;;;;;5018441;28;20046;-83
2021/09/03 08:30:19;;;;;;;15.65;9.52;;;;;;;;;;5019410;28;20526;-83
2021/09/03 08:32:46;;;;;;;10.93;8.00;;;;;;;;;;5018368;28;20042;-83
2021/09/03 08:35:13;;;;;;;12.13;9.27;;;;;;;;;;5021495;28;20042;-83
2021/09/03 08:37:40;;;;;;;13.52;8.90;;;;;;;;;;5027130;28;20114;-83
2021/09/03 08:40:11;;;;;;;12.43;8.30;;;;;;;;;;5037950;28;20046;-82
2021/09/03 08:42:39;;;;;;;14.20;10.25;;;;;;;;;;5040029;28;20038;-82
2021/09/03 08:45:08;;;;;;;14.57;11.20;;;;;;;;;;5040752;28;20040;-80
2021/09/03 08:47:35;;;;;;;15.60;10.95;;;;;;;;;;5040569;28;20030;-82
2021/09/03 08:50:02;;;;;;;12.10;9.18;;;;;;;;;;5030846;28;20088;-83
2021/09/03 08:52:29;;;;;;;12.07;8.95;;;;;;;;;;5028911;28;20041;-83
2021/09/03 08:54:55;;;;;;;15.05;8.50;;;;;;;;;;5027566;28;20049;-82
2021/09/03 08:57:23;;;;;;;13.70;9.75;;;;;;;;;;5028935;28;20077;-83
2021/09/03 08:59:50;;;;;;;12.45;9.27;;;;;;;;;;5030308;28;20050;-83
2021/09/03 09:02:20;;;;;;;12.27;8.85;;;;;;;;;;5029319;28;20084;-83
2021/09/03 09:04:48;;;;;;;13.80;9.77;;;;;;;;;;5028241;28;20046;-83
2021/09/03 09:07:15;;;;;;;14.73;9.38;;;;;;;;;;5027180;28;20474;-83
2021/09/03 09:09:43;;;;;;;11.27;8.45;;;;;;;;;;5028213;28;20066;-83
2021/09/03 09:12:12;;;;;;;12.88;8.13;;;;;;;;;;5026387;28;20100;-83
2021/09/03 09:15:01;;;;;;;11.80;8.32;;;;;;;;;;5027215;28;20058;-83
2021/09/03 09:17:29;;;;;;;11.80;9.00;;;;;;;;;;5023559;28;20414;-83
2021/09/03 09:19:56;;;;;;;11.88;9.10;;;;;;;;;;5023809;28;20140;-83
2021/09/03 09:22:23;;;;;;;11.65;8.40;;;;;;;;;;5024681;28;20411;-83
2021/09/03 09:24:49;;;;;;;15.27;9.55;;;;;;;;;;5023207;28;20050;-83
2021/09/03 09:27:24;;;;;;;12.82;9.52;;;;;;;;;;5020650;28;20076;-83
2021/09/03 09:29:51;;;;;;;11.48;8.32;;;;;;;;;;5018860;28;20493;-83
2021/09/03 09:32:19;;;;;;;12.43;8.88;;;;;;;;;;5018916;28;20050;-83
2021/09/03 09:34:47;;;;;;;11.13;7.45;;;;;;;;;;5019795;28;20120;-83
2021/09/03 09:37:16;;;;;;;13.98;8.85;;;;;;;;;;5024204;28;20053;-85
2021/09/03 09:39:45;;;;;;;12.23;7.93;;;;;;;;;;5023437;28;20078;-83
2021/09/03 09:42:20;;;;;;;12.80;8.35;;;;;;;;;;5021996;28;20093;-84
2021/09/03 09:44:47;;;;;;;10.40;7.72;;;;;;;;;;5019444;28;20385;-83
2021/09/03 09:47:13;;;;;;;10.63;8.23;;;;;;;;;;5021837;28;20529;-83
2021/09/03 09:49:41;;;;;;;10.82;8.02;;;;;;;;;;5022941;28;20056;-83
2021/09/03 09:52:09;;;;;;;10.88;8.13;;;;;;;;;;5022540;28;20486;-84
2021/09/03 09:54:36;;;;;;;9.63;7.53;;;;;;;;;;5022933;28;20097;-81
2021/09/03 09:57:05;;;;;;;10.75;8.10;;;;;;;;;;5023241;28;20053;-82
2021/09/03 09:59:33;;;;;;;11.18;7.85;;;;;;;;;;5023461;28;20045;-83
2021/09/03 10:02:02;;;;;;;11.55;7.60;;;;;;;;;;5025196;28;20077;-83
2021/09/03 10:04:30;;;;;;;11.45;8.32;;;;;;;;;;5024222;28;20434;-83
2021/09/03 10:07:00;;;;;;;10.07;7.47;;;;;;;;;;5024264;28;20085;-84
2021/09/03 10:09:30;;;;;;;11.38;8.30;;;;;;;;;;5025135;28;20049;-84
2021/09/03 10:11:58;;;;;;;10.68;7.82;;;;;;;;;;5023272;28;20072;-84
2021/09/03 10:14:32;;;;;;;10.57;7.32;;;;;;;;;;5025633;28;20050;-83
2021/09/03 10:17:00;;;;;;;10.40;7.72;;;;;;;;;;5026404;28;20073;-83
2021/09/03 10:19:29;;;;;;;11.45;7.70;;;;;;;;;;5029156;28;20640;-83
2021/09/03 10:22:04;;;;;;;11.00;8.48;;;;;;;;;;5022242;28;20561;-84
2021/09/03 10:24:30;;;;;;;10.35;7.88;;;;;;;;;;5023103;28;20053;-82
2021/09/03 10:26:59;;;;;;;12.43;7.47;;;;;;;;;;5023508;28;20100;-83
2021/09/03 10:29:30;;;;;;;9.05;6.40;;;;;;;;;;5023687;28;20046;-83
2021/09/03 10:32:11;;;;;;;9.82;7.78;;;;;;;;;;5022401;28;20086;-84
2021/09/03 10:34:50;;;;;;;11.23;8.98;;;;;;;;;;5022231;28;20128;-83
2021/09/03 10:37:30;;;;;;;10.68;7.57;;;;;;;;;;5029680;28;20046;-83
2021/09/03 10:40:02;;;;;;;9.75;7.25;;;;;;;;;;5026134;28;20091;-83
2021/09/03 10:42:51;;;;;;;10.02;7.10;;;;;;;;;;5022963;28;20053;-82
2021/09/03 10:45:22;;;;;;;10.43;7.07;;;;;;;;;;5025096;28;20088;-83
2021/09/03 10:48:18;;;;;;;10.23;7.25;;;;;;;;;;5027207;28;20046;-83
2021/09/03 10:50:52;;;;;;;9.70;6.85;;;;;;;;;;5013005;28;20522;-84
2021/09/03 10:53:38;;;;;;;9.45;6.88;;;;;;;;;;5029575;28;20050;-83
2021/09/03 10:56:18;;;;;;;12.50;7.13;;;;;;;;;;5027607;28;20053;-83
2021/09/03 10:58:56;;;;;;;9.15;6.75;;;;;;;;;;5024279;28;20053;-84
2021/09/03 11:01:37;;;;;;;9.38;6.72;;;;;;;;;;5024381;28;20423;-84
2021/09/03 11:04:10;;;;;;;10.52;6.80;;;;;;;;;;5023051;28;20046;-82
2021/09/03 11:06:38;;;;;;;10.40;7.60;;;;;;;;;;5023507;28;20110;-84
2021/09/03 11:09:19;;;;;;;9.73;6.80;;;;;;;;;;5021594;28;20108;-84
2021/09/03 11:11:47;;;;;;;9.25;6.30;;;;;;;;;;5020426;28;20046;-84
2021/09/03 11:14:17;;;;;;;9.93;7.60;;;;;;;;;;5021386;28;20065;-84
2021/09/03 11:16:45;;;;;;;10.48;7.05;;;;;;;;;;5021028;28;20480;-84
2021/09/03 11:19:13;;;;;;;9.63;6.80;;;;;;;;;;5021228;28;20046;-85
2021/09/03 11:21:42;;;;;;;12.05;8.10;;;;;;;;;;5022040;28;20060;-84
2021/09/03 11:24:12;;;;;;;9.38;7.05;;;;;;;;;;5021397;28;20112;-84
2021/09/03 11:26:39;;;;;;;11.32;7.88;;;;;;;;;;5022547;28;20056;-84
2021/09/03 11:29:16;;;;;;;9.07;6.97;;;;;;;;;;5021717;28;20046;-83
2021/09/03 11:31:53;;;;;;;9.30;6.10;;;;;;;;;;5022569;28;20046;-84
2021/09/03 11:34:50;;;;;;;8.82;6.45;;;;;;;;;;5022799;28;20050;-85
2021/09/03 11:37:40;;;;;;;8.13;6.60;;;;;;;;;;5022577;28;20065;-83
2021/09/03 11:40:14;;;;;;;8.73;7.20;;;;;;;;;;5022961;28;20054;-83
2021/09/03 11:42:43;;;;;;;10.63;6.80;;;;;;;;;;5023239;28;20116;-83
2021/09/03 11:45:14;;;;;;;10.20;6.43;;;;;;;;;;5023171;28;20050;-83
2021/09/03 11:47:48;;;;;;;8.48;6.32;;;;;;;;;;5022647;28;20046;-84
2021/09/03 11:50:17;;;;;;;8.52;6.07;;;;;;;;;;5021981;28;20041;-84
2021/09/03 11:52:45;;;;;;;7.40;5.75;;;;;;;;;;5021260;28;20085;-83
2021/09/03 11:55:17;;;;;;;7.45;6.13;;;;;;;;;;5021530;28;20042;-84
2021/09/03 11:58:00;;;;;;;7.80;5.82;;;;;;;;;;5020347;28;20479;-84
2021/09/03 12:00:28;;;;;;;7.97;5.80;;;;;;;;;;5020785;28;20050;-84
2021/09/03 12:02:56;;;;;;;8.45;6.38;;;;;;;;;;5020921;28;20050;-84
2021/09/03 12:05:23;;;;;;;7.55;6.43;;;;;;;;;;5020239;28;20557;-85
2021/09/03 12:08:11;;;;;;;8.88;6.25;;;;;;;;;;5020656;28;20046;-83
2021/09/03 12:10:43;;;;;;;8.48;6.35;;;;;;;;;;5019119;28;20089;-84
2021/09/03 12:13:12;;;;;;;8.52;6.20;;;;;;;;;;5020491;28;20081;-84
2021/09/03 12:15:42;;;;;;;8.52;6.07;;;;;;;;;;5020657;28;20160;-84
2021/09/03 12:18:19;;;;;;;10.65;6.53;;;;;;;;;;5020175;28;20057;-84
2021/09/03 12:20:49;;;;;;;8.43;6.05;;;;;;;;;;5022440;28;20330;-84
2021/09/03 12:23:18;;;;;;;8.02;6.03;;;;;;;;;;5019904;28;20081;-83
2021/09/03 12:25:46;;;;;;;8.03;5.67;;;;;;;;;;5019953;28;20045;-83
2021/09/03 12:28:16;;;;;;;9.18;6.75;;;;;;;;;;5020196;28;20046;-85
2021/09/03 12:30:43;;;;;;;8.13;6.57;;;;;;;;;;5019305;28;20060;-82
2021/09/03 12:33:24;;;;;;;10.20;6.25;;;;;;;;;;5020612;28;20054;-84
2021/09/03 12:35:54;;;;;;;9.23;6.78;;;;;;;;;;5020883;28;20098;-83
2021/09/03 12:38:34;;;;;;;9.55;6.72;;;;;;;;;;5019956;28;20046;-84
2021/09/03 12:41:12;;;;;;;8.40;6.53;;;;;;;;;;5020786;28;20077;-84
2021/09/03 12:43:41;;;;;;;7.95;6.50;;;;;;;;;;5020341;28;20077;-84
2021/09/03 12:46:10;;;;;;;8.40;6.25;;;;;;;;;;5020208;28;20046;-84
2021/09/03 12:48:38;;;;;;;11.07;6.05;;;;;;;;;;5019706;28;20072;-83
2021/09/03 12:51:05;;;;;;;8.38;6.32;;;;;;;;;;5020486;28;20088;-84
2021/09/03 12:53:33;;;;;;;9.45;6.30;;;;;;;;;;5022854;28;20042;-84
2021/09/03 12:56:02;;;;;;;8.57;6.72;;;;;;;;;;5021998;28;20077;-83
2021/09/03 12:58:30;;;;;;;8.27;5.97;;;;;;;;;;5020928;28;20049;-84
2021/09/03 13:00:57;;;;;;;8.43;6.35;;;;;;;;;;5021677;28;20072;-83
2021/09/03 13:03:25;;;;;;;7.75;6.20;;;;;;;;;;5022709;28;20045;-83
2021/09/03 13:05:52;;;;;;;8.20;6.43;;;;;;;;;;5023499;28;20109;-85
2021/09/03 13:08:24;;;;;;;7.28;5.78;;;;;;;;;;5022981;28;20130;-83
2021/09/03 13:10:50;;;;;;;6.55;5.05;;;;;;;;;;5021282;28;20046;-84
2021/09/03 13:13:17;;;;;;;8.77;6.30;;;;;;;;;;5021579;28;20057;-84
2021/09/03 13:15:48;;;;;;;8.18;6.13;;;;;;;;;;5024629;28;20185;-82
2021/09/03 13:18:14;;;;;;;8.70;6.07;;;;;;;;;;5022206;28;20076;-84
2021/09/03 13:20:41;;;;;;;7.13;5.80;;;;;;;;;;5020946;28;20088;-83
2021/09/03 13:23:08;;;;;;;8.05;6.65;;;;;;;;;;5023584;28;20077;-83
2021/09/03 13:25:37;;;;;;;8.43;5.20;;;;;;;;;;5024546;28;20462;-83
2021/09/03 13:28:05;;;;;;;9.15;5.85;;;;;;;;;;5026337;28;20072;-84
2021/09/03 13:30:37;;;;;;;10.80;6.72;;;;;;;;;;5026447;28;20082;-84
2021/09/03 13:33:06;;;;;;;9.88;5.80;;;;;;;;;;5025014;28;20113;-84
2021/09/03 13:35:33;;;;;;;8.27;5.85;;;;;;;;;;5024440;28;20069;-84
2021/09/03 13:37:59;;;;;;;6.55;5.38;;;;;;;;;;5024293;28;20049;-83
2021/09/03 13:40:26;;;;;;;7.68;5.45;;;;;;;;;;5024192;28;20050;-84
2021/09/03 13:42:53;;;;;;;6.80;5.60;;;;;;;;;;5024932;28;20053;-84
2021/09/03 13:45:20;;;;;;;6.60;5.18;;;;;;;;;;5025282;28;20133;-83
2021/09/03 13:47:47;;;;;;;7.38;5.78;;;;;;;;;;5023770;28;20473;-84
2021/09/03 13:50:51;;;;;;;9.55;6.72;;;;;;;;;;5112663;23;20053;-86
2021/09/03 13:53:24;;;;;;;6.93;6.20;;;;;;;;;;4964250;28;20054;-87
2021/09/03 13:56:00;;;;;;;6.70;6.00;;;;;;;;;;5017224;28;20050;-87
2021/09/03 13:58:34;;;;;;;6.95;6.00;;;;;;;;;;5038725;28;20049;-87
2021/09/03 14:03:50;;;;;;;7.68;6.85;;;;;;;;;;5035181;28;20052;-87
2021/09/03 14:09:49;;;;;;;7.47;5.25;;;;;;;;;;5014160;28;20054;-87
2021/09/03 14:12:27;;;;;;;;;;;;;;;;;;;;;
2021/09/03 14:14:57;;;;;;;6.40;4.82;;;;;;;;;;4999833;28;20053;-86
2021/09/03 14:17:41;;;;;;;;;;;;;;;;;;5016294;28;20107;-86
2021/09/03 14:20:29;;;;;;;6.47;5.15;;;;;;;;;;5015600;28;19922;-87
2021/09/03 14:26:45;;;;;;;6.72;5.18;;;;;;;;;;5005339;28;20042;-87
2021/09/03 14:29:22;;;;;;;5.55;4.35;;;;;;;;;;4936790;29;20078;-88
2021/09/03 14:31:53;;;;;;;5.55;4.68;;;;;;;;;;5014132;28;20096;-86
2021/09/03 14:40:46;;;;;;;5.75;4.25;;;;;;;;;;5240409;23;20108;-86
2021/09/03 14:43:19;;;;;;;5.70;4.10;;;;;;;;;;5017220;28;20054;-86
2021/09/03 14:45:59;;;;;;;5.90;4.90;;;;;;;;;;5016498;28;20099;-86
2021/09/03 14:53:58;;;;;;;5.05;4.13;;;;;;;;;;4973116;28;20535;-86
2021/09/03 15:02:49;;;;;;;6.30;4.30;;;;;;;;;;4897888;29;20052;-87
2021/09/03 15:05:25;;;;;;;6.57;4.47;;;;;;;;;;4923795;28;20050;-86
2021/09/03 15:08:02;;;;;;;5.78;4.57;;;;;;;;;;4973232;28;20101;-84
2021/09/03 15:10:46;;;;;;;6.00;4.57;;;;;;;;;;4973366;28;20089;-87
2021/09/03 15:13:37;;;;;;;;;;;;;;;;;;;;;
2021/09/03 15:16:08;;;;;;;6.18;4.35;;;;;;;;;;5015016;28;20129;-87
2021/09/03 15:18:41;;;;;;;6.10;4.95;;;;;;;;;;5015824;28;20064;-86
2021/09/03 15:21:17;;;;;;;7.63;4.90;;;;;;;;;;5026891;28;20037;-86
2021/09/03 15:23:45;;;;;;;5.93;4.82;;;;;;;;;;5036519;28;20046;-86
2021/09/03 15:26:18;;;;;;;6.63;5.10;;;;;;;;;;5017829;28;20054;-86
2021/09/03 15:28:58;;;;;;;5.80;4.50;;;;;;;;;;5031288;23;20503;-86
2021/09/03 15:34:28;;;;;;;5.68;4.68;;;;;;;;;;5005300;28;20058;-86
2021/09/03 15:37:25;;;;;;;;;;;;;;;;;;;;;
2021/09/03 15:39:59;;;;;;;6.10;4.45;;;;;;;;;;5007214;28;20065;-85
2021/09/03 15:42:27;;;;;;;5.57;4.38;;;;;;;;;;5020695;28;20053;-86
2021/09/03 15:45:22;;;;;;;5.32;4.20;;;;;;;;;;5016944;28;20049;-86
2021/09/03 15:47:52;;;;;;;5.55;4.28;;;;;;;;;;5011054;28;20157;-86
2021/09/03 15:50:25;;;;;;;6.35;4.97;;;;;;;;;;5016094;28;20358;-86
2021/09/03 15:52:58;;;;;;;7.40;5.95;;;;;;;;;;5015970;28;20489;-86
2021/09/03 15:55:33;;;;;;;6.25;4.25;;;;;;;;;;5018344;28;20046;-87
2021/09/03 15:58:21;;;;;;;5.95;4.63;;;;;;;;;;5015121;28;20049;-87
2021/09/03 16:07:49;;;;;;;6.32;5.60;;;;;;;;;;4896023;29;20182;-88
2021/09/03 16:10:30;;;;;;;6.43;4.70;;;;;;;;;;4952672;29;20134;-87
2021/09/03 16:16:35;;;;;;;11.55;10.35;;;;;;;;;;4944904;29;20107;-87
2021/09/03 16:25:27;;;;;;;6.20;4.55;;;;;;;;;;4894942;29;20052;-87
2021/09/03 16:28:01;;;;;;;6.13;4.60;;;;;;;;;;4935105;29;20055;-87
2021/09/03 16:30:44;;;;;;;6.40;5.00;;;;;;;;;;4954463;29;20051;-87
2021/09/03 16:39:35;;;;;;;5.57;3.88;;;;;;;;;;4857841;29;20049;-87
2021/09/03 16:42:19;;;;;;;5.82;4.10;;;;;;;;;;4868054;29;20049;-87
2021/09/03 16:47:45;;;;;;;9.65;8.60;;;;;;;;;;4981873;28;20435;-87
2021/09/03 16:50:20;;;;;;;6.38;4.55;;;;;;;;;;4992679;28;20080;-87
2021/09/03 16:52:47;;;;;;;6.65;4.72;;;;;;;;;;4992613;28;20495;-87
2021/09/03 16:55:16;;;;;;;11.40;10.25;;;;;;;;;;4993775;28;20463;-87
2021/09/03 16:57:43;;;;;;;8.90;7.53;;;;;;;;;;5002302;28;20538;-86
2021/09/03 17:00:13;;;;;;;8.88;7.97;;;;;;;;;;4999429;28;20317;-87
2021/09/03 17:02:39;;;;;;;7.38;4.85;;;;;;;;;;4996992;28;20170;-87
2021/09/03 17:05:07;;;;;;;6.82;4.28;;;;;;;;;;4997794;28;20419;-87
2021/09/03 17:07:37;;;;;;;5.72;4.18;;;;;;;;;;4998205;28;20050;-87
2021/09/03 17:10:07;;;;;;;5.47;3.97;;;;;;;;;;4996896;28;20389;-86
2021/09/03 17:12:38;;;;;;;;;;;;;;;;;;5014574;28;20057;-87
2021/09/03 17:15:21;;;;;;;6.65;4.03;;;;;;;;;;5019318;28;19922;-86
2021/09/03 17:17:57;;;;;;;6.68;4.32;;;;;;;;;;5017643;28;20034;-86
2021/09/03 17:20:24;;;;;;;5.00;3.35;;;;;;;;;;5017738;28;20054;-87
2021/09/03 17:22:51;;;;;;;5.93;3.80;;;;;;;;;;5005713;28;20062;-87
2021/09/03 17:25:24;;;;;;;5.95;4.03;;;;;;;;;;5001652;28;20136;-87
2021/09/03 17:27:52;;;;;;;5.88;4.22;;;;;;;;;;5000299;28;20112;-87
2021/09/03 17:30:34;;;;;;;;;;;;;;;;;;;;;
2021/09/03 17:33:07;;;;;;;5.85;3.85;;;;;;;;;;4999403;28;20049;-87
2021/09/03 17:35:34;;;;;;;5.90;4.05;;;;;;;;;;5011101;28;20038;-87
2021/09/03 17:38:01;;;;;;;6.57;4.35;;;;;;;;;;5016184;28;20069;-88
2021/09/03 17:40:42;;;;;;;6.53;4.22;;;;;;;;;;5005836;28;20077;-87
2021/09/03 17:43:19;;;;;;;6.55;4.20;;;;;;;;;;4998870;28;20050;-87
2021/09/03 17:45:58;;;;;;;6.53;4.28;;;;;;;;;;4998335;28;20042;-87
2021/09/03 17:48:25;;;;;;;7.20;4.45;;;;;;;;;;4997363;28;20450;-87
2021/09/03 17:50:52;;;;;;;6.45;4.50;;;;;;;;;;4997800;28;20058;-87
2021/09/03 17:53:19;;;;;;;6.63;3.78;;;;;;;;;;5001579;28;20052;-87
2021/09/03 17:55:47;;;;;;;6.05;4.07;;;;;;;;;;5019075;28;20039;-87
2021/09/03 17:58:23;;;;;;;7.60;4.55;;;;;;;;;;5005660;28;20088;-87
2021/09/03 18:03:44;;;;;;;8.48;4.95;;;;;;;;;;5012472;28;20052;-87
2021/09/03 18:06:11;;;;;;;9.55;5.18;;;;;;;;;;5016422;28;20046;-87
2021/09/03 18:08:47;;;;;;;10.43;8.15;;;;;;;;;;5015593;28;20050;-87
2021/09/03 18:11:38;;;;;;;10.93;8.02;;;;;;;;;;5016344;28;20483;-87
2021/09/03 18:14:20;;;;;;;15.43;13.82;;;;;;;;;;5016673;28;20077;-87
2021/09/03 18:16:47;;;;;;;15.18;13.57;;;;;;;;;;5016253;28;20052;-87
2021/09/03 18:19:15;;;;;;;14.05;11.95;;;;;;;;;;5016518;28;20054;-86
2021/09/03 18:21:48;;;;;;;11.35;9.05;;;;;;;;;;5015674;28;20050;-87
2021/09/03 18:24:30;;;;;;;9.27;7.10;;;;;;;;;;5016983;28;20058;-87
2021/09/03 18:27:10;;;;;;;7.43;5.18;;;;;;;;;;5017269;28;20057;-86
2021/09/03 18:30:01;;;;;;;8.40;5.55;;;;;;;;;;5016311;28;20491;-86
2021/09/03 18:32:28;;;;;;;8.02;5.30;;;;;;;;;;5016679;28;20053;-86
2021/09/03 18:34:55;;;;;;;5.80;4.00;;;;;;;;;;5016457;28;20081;-86
2021/09/03 18:37:22;;;;;;;7.35;5.15;;;;;;;;;;5015145;28;20049;-86